Terminal Aerodrome Forecast
Issued by NWS

Home | Current Version | Previous Version | Graphics & Text | Print | Product List | Glossary On
Versions: 1 2 3 4 5 6 7 8 9 10 11 12 13 14 15
701
FTUS43 KBIS 250536
TAFJMS
TAF
KJMS 250536Z 2506/2606 14017G27KT P6SM VCSH BKN080
     FM251300 17014G23KT P6SM BKN100
     FM251700 22016G25KT P6SM SCT130
     FM260100 24009KT P6SM SCT200=

USA.gov is the U.S. government's official web portal to all federal, state and local government web resources and services.